Time;durP1;ratioP1;P1;durP2;ratioP2;P2;SDS_P1;SDS_P2;PMS_P1;PMS_P2;Temp;Humidity;BMP_temperature;BMP_pressure;BME280_temperature;BME280_humidity;BME280_pressure;Samples;Min_cycle;Max_cycle;Signal;HPM_P1;HPM_P2
2021/07/06 00:00:09;;;;;;;6.17;2.80;;;18.20;91.90;;;;;;5060468;28;20520;-75
2021/07/06 00:02:35;;;;;;;4.97;3.07;;;18.20;92.00;;;;;;5057157;28;20194;-76
2021/07/06 00:05:01;;;;;;;4.73;3.10;;;18.10;92.10;;;;;;5053405;28;20480;-75
2021/07/06 00:07:27;;;;;;;5.80;3.50;;;18.10;92.20;;;;;;5053635;28;20208;-75
2021/07/06 00:09:53;;;;;;;7.23;3.13;;;18.10;92.30;;;;;;5055994;28;20656;-77
2021/07/06 00:12:19;;;;;;;5.77;3.07;;;18.10;92.30;;;;;;5057034;28;20495;-75
2021/07/06 00:14:46;;;;;;;5.73;3.20;;;18.10;92.30;;;;;;5055211;28;20979;-75
2021/07/06 00:17:12;;;;;;;14.17;4.00;;;18.20;92.10;;;;;;5056527;28;20447;-76
2021/07/06 00:19:38;;;;;;;5.33;3.20;;;18.20;92.20;;;;;;5058513;28;20427;-75
2021/07/06 00:22:04;;;;;;;4.73;3.23;;;18.20;92.30;;;;;;5058524;28;20413;-74
2021/07/06 00:24:30;;;;;;;6.30;3.03;;;18.20;92.10;;;;;;5059035;28;20471;-76
2021/07/06 00:26:56;;;;;;;6.90;3.90;;;18.20;92.10;;;;;;5057810;28;20657;-75
2021/07/06 00:29:22;;;;;;;3.83;3.10;;;18.20;92.00;;;;;;5059533;28;20230;-75
2021/07/06 00:31:47;;;;;;;6.20;3.47;;;18.20;92.20;;;;;;5059194;28;20204;-76
2021/07/06 00:34:13;;;;;;;7.10;3.90;;;18.30;91.90;;;;;;5056661;28;20463;-74
2021/07/06 00:36:39;;;;;;;7.90;4.17;;;18.20;92.00;;;;;;5055270;28;20177;-74
2021/07/06 00:39:05;;;;;;;9.40;5.10;;;18.20;92.10;;;;;;5052953;28;20199;-76
2021/07/06 00:41:34;;;;;;;8.43;4.00;;;18.20;92.20;;;;;;5054434;28;20362;-76
2021/07/06 00:44:00;;;;;;;9.77;4.67;;;18.10;92.20;;;;;;5054023;28;20419;-75
2021/07/06 00:46:26;;;;;;;14.53;4.40;;;18.10;92.30;;;;;;5053900;28;20455;-76
2021/07/06 00:48:52;;;;;;;13.33;4.63;;;18.00;92.30;;;;;;5052810;28;20439;-74
2021/07/06 00:51:18;;;;;;;5.03;3.80;;;17.90;92.50;;;;;;5054063;28;20304;-76
2021/07/06 00:53:43;;;;;;;6.40;3.80;;;18.00;92.40;;;;;;5054034;28;20557;-75
2021/07/06 00:56:09;;;;;;;6.57;3.20;;;18.10;92.20;;;;;;5054204;28;20411;-74
2021/07/06 00:58:36;;;;;;;7.93;3.70;;;18.00;92.10;;;;;;5054244;28;20221;-74
2021/07/06 01:01:02;;;;;;;5.50;3.40;;;18.00;92.10;;;;;;5054363;28;20219;-74
2021/07/06 01:03:28;;;;;;;5.60;3.23;;;18.00;92.20;;;;;;5055549;28;20426;-76
2021/07/06 01:05:54;;;;;;;8.90;3.43;;;17.90;92.40;;;;;;5057391;28;20461;-76
2021/07/06 01:08:20;;;;;;;4.63;2.83;;;17.80;92.70;;;;;;5058135;28;20216;-74
2021/07/06 01:10:45;;;;;;;6.73;4.00;;;17.90;92.60;;;;;;5056619;28;20310;-74
2021/07/06 01:13:12;;;;;;;4.23;2.73;;;17.90;92.50;;;;;;5057086;28;20236;-76
2021/07/06 01:15:37;;;;;;;6.80;2.93;;;17.90;92.60;;;;;;5057333;28;20212;-75
2021/07/06 01:18:10;;;;;;;4.00;3.00;;;17.90;92.50;;;;;;5055892;28;20427;-75
2021/07/06 01:20:39;;;;;;;6.37;3.23;;;17.90;92.50;;;;;;5053629;28;20550;-74
2021/07/06 01:23:07;;;;;;;4.90;3.00;;;17.90;92.60;;;;;;5053217;28;20417;-74
2021/07/06 01:25:36;;;;;;;4.83;2.80;;;17.90;92.70;;;;;;5053211;28;20418;-74
2021/07/06 01:28:03;;;;;;;4.27;2.87;;;17.90;92.70;;;;;;5053118;28;20436;-75
2021/07/06 01:30:29;;;;;;;6.40;3.30;;;17.90;92.90;;;;;;5053017;28;20426;-76
2021/07/06 01:32:55;;;;;;;4.63;3.20;;;17.90;93.00;;;;;;5052703;28;20423;-73
2021/07/06 01:35:21;;;;;;;5.03;3.53;;;17.90;93.10;;;;;;5052970;28;20982;-76
2021/07/06 01:38:04;;;;;;;6.40;4.20;;;17.90;92.90;;;;;;5052552;28;20526;-76
2021/07/06 01:40:32;;;;;;;3.70;3.13;;;17.90;92.80;;;;;;5052985;28;20256;-76
2021/07/06 01:42:58;;;;;;;7.10;3.43;;;17.90;92.70;;;;;;5052696;28;20848;-74
2021/07/06 01:45:27;;;;;;;6.27;3.57;;;18.00;92.60;;;;;;5054781;28;20425;-75
2021/07/06 01:47:55;;;;;;;6.20;3.83;;;18.00;92.60;;;;;;5052500;28;20945;-76
2021/07/06 01:50:27;;;;;;;6.27;3.80;;;18.00;92.50;;;;;;5052969;28;20418;-75
2021/07/06 01:52:55;;;;;;;7.80;3.70;;;18.00;92.30;;;;;;5052469;28;20410;-75
2021/07/06 01:55:28;;;;;;;4.73;3.33;;;18.10;92.30;;;;;;5052614;28;20416;-74
2021/07/06 01:57:56;;;;;;;6.50;3.97;;;18.10;92.20;;;;;;5052629;28;20435;-75
2021/07/06 02:00:24;;;;;;;4.40;3.27;;;18.00;92.20;;;;;;5052375;28;20427;-75
2021/07/06 02:02:49;;;;;;;5.10;3.33;;;18.00;92.30;;;;;;5052640;28;20782;-76
2021/07/06 02:05:18;;;;;;;10.63;3.50;;;17.90;92.30;;;;;;5053131;28;20518;-77
2021/07/06 02:07:46;;;;;;;5.33;3.57;;;17.80;92.60;;;;;;5054977;28;20216;-76
2021/07/06 02:10:13;;;;;;;8.47;3.87;;;17.80;92.60;;;;;;5056854;28;20430;-75
2021/07/06 02:12:40;;;;;;;7.03;3.77;;;17.80;92.60;;;;;;5055216;28;20804;-75
2021/07/06 02:15:08;;;;;;;5.63;3.80;;;17.80;92.70;;;;;;5048426;28;20462;-74
2021/07/06 02:17:34;;;;;;;3.97;3.10;;;17.80;92.70;;;;;;5041946;28;20444;-76
2021/07/06 02:20:00;;;;;;;6.70;3.33;;;17.80;92.50;;;;;;5044641;28;20562;-76
2021/07/06 02:22:25;;;;;;;4.90;3.00;;;17.80;92.40;;;;;;5045514;28;20232;-75
2021/07/06 02:24:51;;;;;;;6.70;3.70;;;17.70;92.50;;;;;;5048301;28;20196;-75
2021/07/06 02:27:17;;;;;;;6.33;3.67;;;17.70;92.60;;;;;;5048596;28;20304;-76
2021/07/06 02:29:43;;;;;;;6.07;3.10;;;17.60;92.80;;;;;;5049857;28;20252;-76
2021/07/06 02:32:09;;;;;;;5.40;3.37;;;17.60;93.00;;;;;;5049453;28;20189;-73
2021/07/06 02:34:35;;;;;;;6.07;3.27;;;17.50;93.00;;;;;;5048105;28;20196;-74
2021/07/06 02:37:02;;;;;;;5.97;3.23;;;17.50;93.00;;;;;;5045275;28;20426;-74
2021/07/06 02:39:28;;;;;;;4.60;3.50;;;17.50;93.10;;;;;;5049093;28;20511;-73
2021/07/06 02:41:53;;;;;;;3.77;2.53;;;17.50;92.90;;;;;;5048945;28;20951;-75
2021/07/06 02:44:19;;;;;;;8.33;3.57;;;17.50;93.10;;;;;;5049439;28;20205;-75
2021/07/06 02:46:45;;;;;;;5.20;2.87;;;17.50;93.10;;;;;;5049744;28;20215;-75
2021/07/06 02:49:10;;;;;;;4.10;3.00;;;17.40;93.40;;;;;;5049503;28;20214;-75
2021/07/06 02:51:36;;;;;;;4.60;3.47;;;17.30;93.70;;;;;;5049046;28;20264;-76
2021/07/06 02:54:04;;;;;;;5.43;3.57;;;17.30;93.60;;;;;;5049748;28;20207;-74
2021/07/06 02:56:30;;;;;;;6.37;3.40;;;17.30;93.70;;;;;;5049808;28;20841;-76
2021/07/06 02:58:55;;;;;;;5.70;3.47;;;17.20;93.70;;;;;;5048302;28;20438;-75
2021/07/06 03:01:21;;;;;;;4.97;3.27;;;17.20;93.90;;;;;;5045459;28;20484;-76
2021/07/06 03:03:47;;;;;;;9.40;3.60;;;17.30;93.90;;;;;;5054591;28;20890;-75
2021/07/06 03:06:13;;;;;;;8.20;3.10;;;17.30;93.70;;;;;;5053810;28;20288;-75
2021/07/06 03:08:38;;;;;;;4.77;3.57;;;17.30;93.70;;;;;;5049344;28;20210;-77
2021/07/06 03:11:04;;;;;;;8.60;3.47;;;17.30;93.90;;;;;;5045543;28;20192;-75
2021/07/06 03:13:30;;;;;;;6.23;3.57;;;17.30;93.90;;;;;;5050174;28;20643;-76
2021/07/06 03:15:56;;;;;;;5.67;2.97;;;17.20;93.70;;;;;;5045577;28;20189;-76
2021/07/06 03:18:21;;;;;;;7.03;3.83;;;17.20;93.80;;;;;;5051805;28;20235;-76
2021/07/06 03:20:48;;;;;;;5.13;3.23;;;17.20;93.80;;;;;;5051097;28;20206;-75
2021/07/06 03:23:16;;;;;;;5.73;3.20;;;17.20;93.80;;;;;;5051322;28;20180;-76
2021/07/06 03:25:43;;;;;;;6.80;3.50;;;17.20;93.60;;;;;;5051422;28;20913;-75
2021/07/06 03:28:10;;;;;;;5.93;3.57;;;17.20;93.60;;;;;;5051633;28;20439;-75
2021/07/06 03:30:36;;;;;;;6.03;3.37;;;17.20;93.70;;;;;;5048401;28;20469;-76
2021/07/06 03:33:05;;;;;;;5.60;3.07;;;17.20;93.80;;;;;;5049273;28;21027;-75
2021/07/06 03:35:30;;;;;;;4.40;3.07;;;17.20;93.70;;;;;;5049570;28;20428;-76
2021/07/06 03:37:57;;;;;;;6.27;3.60;;;17.20;93.80;;;;;;5049670;28;20830;-75
2021/07/06 03:40:24;;;;;;;3.70;3.40;;;17.20;93.80;;;;;;5047278;28;20591;-75
2021/07/06 03:42:50;;;;;;;4.63;3.47;;;17.30;93.60;;;;;;5049235;28;20418;-77
2021/07/06 03:45:17;;;;;;;5.63;3.13;;;17.30;93.50;;;;;;5049584;28;20415;-77
2021/07/06 03:47:43;;;;;;;4.63;3.30;;;17.30;93.40;;;;;;5041475;28;20477;-76
2021/07/06 03:50:12;;;;;;;6.10;3.50;;;17.30;93.50;;;;;;5049727;28;20946;-76
2021/07/06 03:52:38;;;;;;;5.13;3.10;;;17.40;93.20;;;;;;5048197;28;21136;-75
2021/07/06 03:55:06;;;;;;;3.97;2.97;;;17.40;93.10;;;;;;5050991;28;20414;-74
2021/07/06 03:57:32;;;;;;;4.07;3.27;;;17.40;93.00;;;;;;5051493;28;20530;-76
2021/07/06 04:00:01;;;;;;;5.53;3.90;;;17.40;93.00;;;;;;5048224;28;20935;-76
2021/07/06 04:02:27;;;;;;;6.10;3.10;;;17.40;92.90;;;;;;5057338;28;20886;-76
2021/07/06 04:04:53;;;;;;;5.67;3.57;;;17.50;92.90;;;;;;5056085;28;20431;-75
2021/07/06 04:07:19;;;;;;;6.40;3.30;;;17.50;92.70;;;;;;5055405;28;20291;-75
2021/07/06 04:09:45;;;;;;;3.77;2.93;;;17.50;92.80;;;;;;5067459;28;20459;-75
2021/07/06 04:12:11;;;;;;;6.57;3.50;;;17.50;92.70;;;;;;5069630;28;20499;-75
2021/07/06 04:14:37;;;;;;;5.03;3.40;;;17.50;92.30;;;;;;5054518;28;20430;-73
2021/07/06 04:17:03;;;;;;;4.60;3.50;;;17.40;92.50;;;;;;5060613;28;20485;-75
2021/07/06 04:19:29;;;;;;;4.90;3.30;;;17.40;92.70;;;;;;5052356;28;20540;-76
2021/07/06 04:21:55;;;;;;;5.23;2.90;;;17.50;92.40;;;;;;5050781;28;20434;-76
2021/07/06 04:24:21;;;;;;;4.20;3.20;;;17.60;92.10;;;;;;5051539;28;20198;-75
2021/07/06 04:26:46;;;;;;;4.93;3.40;;;17.60;92.20;;;;;;5043282;28;20219;-76
2021/07/06 04:29:12;;;;;;;5.00;3.60;;;17.70;92.20;;;;;;5047002;28;20253;-76
2021/07/06 04:31:38;;;;;;;3.80;2.93;;;17.80;92.20;;;;;;5051675;28;20195;-73
2021/07/06 04:34:04;;;;;;;6.27;3.20;;;17.80;92.10;;;;;;5053835;28;20208;-73
2021/07/06 04:36:31;;;;;;;5.77;4.13;;;17.90;91.90;;;;;;5053694;28;20477;-77
2021/07/06 04:38:58;;;;;;;7.97;3.00;;;18.00;91.70;;;;;;5050700;28;21004;-72
2021/07/06 04:41:24;;;;;;;4.97;3.20;;;18.00;91.60;;;;;;5051375;28;20470;-73
2021/07/06 04:43:49;;;;;;;4.73;3.30;;;18.10;91.40;;;;;;5052263;28;20875;-72
2021/07/06 04:46:15;;;;;;;3.50;2.83;;;18.10;91.20;;;;;;5051802;28;20227;-72
2021/07/06 04:48:41;;;;;;;4.20;3.03;;;18.00;91.30;;;;;;5051350;28;20246;-73
2021/07/06 04:51:09;;;;;;;4.67;3.10;;;18.00;91.40;;;;;;5051205;28;20222;-73
2021/07/06 04:53:37;;;;;;;4.90;3.27;;;18.10;91.60;;;;;;5052777;28;20190;-72
2021/07/06 04:56:03;;;;;;;5.73;3.33;;;18.20;91.50;;;;;;5052218;28;20434;-73
2021/07/06 04:58:29;;;;;;;4.80;2.77;;;18.40;91.20;;;;;;5050597;28;20826;-74
2021/07/06 05:00:56;;;;;;;5.07;3.67;;;18.50;90.80;;;;;;5050932;28;20199;-72
2021/07/06 05:03:23;;;;;;;4.90;3.13;;;18.60;90.60;;;;;;5051707;28;20432;-72
2021/07/06 05:05:50;;;;;;;5.53;3.30;;;18.80;90.50;;;;;;5051554;28;20503;-73
2021/07/06 05:08:15;;;;;;;6.93;3.40;;;18.90;89.70;;;;;;5050482;28;20451;-73
2021/07/06 05:10:41;;;;;;;14.47;8.33;;;19.10;88.70;;;;;;5049435;28;21103;-73
2021/07/06 05:13:07;;;;;;;6.27;3.70;;;19.10;88.10;;;;;;5043579;28;20910;-73
2021/07/06 05:15:33;;;;;;;5.73;3.40;;;19.10;88.00;;;;;;5049587;28;20432;-73
2021/07/06 05:17:58;;;;;;;6.53;3.43;;;19.10;88.30;;;;;;5049977;28;20214;-73
2021/07/06 05:20:24;;;;;;;6.53;3.70;;;19.20;88.10;;;;;;5051075;28;20285;-74
2021/07/06 05:22:50;;;;;;;7.30;4.00;;;19.10;87.80;;;;;;5049230;28;20215;-74
2021/07/06 05:25:16;;;;;;;7.83;4.03;;;19.10;88.00;;;;;;5049994;28;20188;-73
2021/07/06 05:27:43;;;;;;;6.97;3.73;;;19.10;88.10;;;;;;5047528;28;20212;-74
2021/07/06 05:30:10;;;;;;;4.90;3.57;;;19.00;88.60;;;;;;5050540;28;20419;-75
2021/07/06 05:32:39;;;;;;;5.13;3.40;;;19.00;88.90;;;;;;5049923;28;20423;-73
2021/07/06 05:35:08;;;;;;;5.43;3.70;;;19.10;88.90;;;;;;5050559;28;20438;-74
2021/07/06 05:37:34;;;;;;;5.30;3.17;;;19.10;88.90;;;;;;5050601;28;20971;-75
2021/07/06 05:40:00;;;;;;;6.20;3.93;;;19.10;88.70;;;;;;5050396;28;20794;-74
2021/07/06 05:42:25;;;;;;;7.17;3.90;;;19.10;88.70;;;;;;5050478;28;20956;-76
2021/07/06 05:44:51;;;;;;;9.17;5.20;;;19.10;88.70;;;;;;5050709;28;20255;-73
2021/07/06 05:47:17;;;;;;;8.93;3.90;;;19.10;88.40;;;;;;5064658;28;20212;-74
2021/07/06 05:49:42;;;;;;;9.90;3.83;;;19.20;87.40;;;;;;5049549;28;20192;-74
2021/07/06 05:52:08;;;;;;;6.33;3.67;;;19.40;86.60;;;;;;5049517;28;20590;-74
2021/07/06 05:54:34;;;;;;;7.43;3.70;;;19.40;86.20;;;;;;5049936;28;20189;-73
2021/07/06 05:57:00;;;;;;;5.40;3.43;;;19.40;86.30;;;;;;5049458;28;20216;-73
2021/07/06 05:59:25;;;;;;;5.00;3.10;;;19.70;85.20;;;;;;5045861;28;20208;-74
2021/07/06 06:01:51;;;;;;;5.30;3.07;;;19.80;84.30;;;;;;5049814;28;21966;-74
2021/07/06 06:04:17;;;;;;;5.67;3.27;;;19.90;84.30;;;;;;5050416;28;20196;-74
2021/07/06 06:06:43;;;;;;;14.30;5.60;;;19.90;84.30;;;;;;5048912;28;20216;-74
2021/07/06 06:09:09;;;;;;;7.40;3.87;;;20.00;84.00;;;;;;5051558;28;20243;-73
2021/07/06 06:11:34;;;;;;;5.80;2.93;;;20.00;84.30;;;;;;5052032;28;20438;-73
2021/07/06 06:14:00;;;;;;;5.50;3.70;;;20.10;84.00;;;;;;5050277;28;20708;-74
2021/07/06 06:16:26;;;;;;;9.83;4.10;;;20.20;84.10;;;;;;5051486;28;20242;-74
2021/07/06 06:18:55;;;;;;;6.63;3.23;;;20.40;83.70;;;;;;5043179;28;20221;-72
2021/07/06 06:21:25;;;;;;;7.87;3.07;;;20.50;83.30;;;;;;5058937;28;20199;-74
2021/07/06 06:23:52;;;;;;;5.33;3.00;;;20.70;82.80;;;;;;5051157;28;20519;-74
2021/07/06 06:26:17;;;;;;;6.03;3.03;;;20.80;82.80;;;;;;5050524;28;20522;-75
2021/07/06 06:28:43;;;;;;;3.87;2.57;;;21.00;82.20;;;;;;5050724;28;20448;-74
2021/07/06 06:31:10;;;;;;;4.10;3.03;;;21.20;81.10;;;;;;5050795;28;20268;-73
2021/07/06 06:33:35;;;;;;;5.87;2.73;;;21.30;81.10;;;;;;5049265;28;20575;-74
2021/07/06 06:36:01;;;;;;;4.67;2.90;;;21.40;80.60;;;;;;5050318;28;20531;-74
2021/07/06 06:38:27;;;;;;;8.80;3.13;;;21.50;79.30;;;;;;5050634;28;20306;-74
2021/07/06 06:40:53;;;;;;;10.53;3.17;;;21.60;78.40;;;;;;5049965;28;20194;-74
2021/07/06 06:43:18;;;;;;;9.73;3.27;;;21.70;77.40;;;;;;5049887;28;20201;-74
2021/07/06 06:45:46;;;;;;;4.73;2.60;;;21.70;77.60;;;;;;5049370;28;20247;-75
2021/07/06 06:48:12;;;;;;;7.90;2.80;;;21.80;77.10;;;;;;5049566;28;20237;-75
2021/07/06 06:50:38;;;;;;;5.40;2.93;;;21.80;77.10;;;;;;5049347;28;20454;-74
2021/07/06 06:53:04;;;;;;;9.87;2.87;;;21.90;77.60;;;;;;5049304;28;20278;-74
2021/07/06 06:55:29;;;;;;;3.43;2.40;;;21.90;77.00;;;;;;5049360;28;20423;-74
2021/07/06 06:57:55;;;;;;;4.43;2.00;;;21.90;76.70;;;;;;5049729;28;20211;-75
2021/07/06 07:00:21;;;;;;;3.40;1.87;;;22.20;74.90;;;;;;5048775;28;20467;-75
2021/07/06 07:02:50;;;;;;;2.93;2.10;;;22.50;73.20;;;;;;5052282;28;20191;-74
2021/07/06 07:05:16;;;;;;;2.43;1.70;;;22.60;73.00;;;;;;5049470;28;20634;-74
2021/07/06 07:07:43;;;;;;;5.43;1.83;;;22.70;72.10;;;;;;5049933;28;20523;-75
2021/07/06 07:10:11;;;;;;;2.90;2.10;;;22.90;70.80;;;;;;5049238;28;20765;-75
2021/07/06 07:12:39;;;;;;;2.43;1.80;;;23.20;70.50;;;;;;5049115;28;21131;-74
2021/07/06 07:15:09;;;;;;;3.00;1.90;;;23.30;70.40;;;;;;5049635;28;20513;-75
2021/07/06 07:17:35;;;;;;;3.00;1.83;;;23.60;69.10;;;;;;5049983;28;20467;-75
2021/07/06 07:20:01;;;;;;;7.80;1.77;;;23.90;68.90;;;;;;5053052;28;20973;-75
2021/07/06 07:22:27;;;;;;;3.67;1.80;;;24.10;68.50;;;;;;5049136;28;20531;-74
2021/07/06 07:24:53;;;;;;;2.37;1.73;;;24.30;67.30;;;;;;5049222;28;20192;-74
2021/07/06 07:27:19;;;;;;;3.70;1.70;;;24.20;67.50;;;;;;5049698;28;20813;-74
2021/07/06 07:29:44;;;;;;;3.57;1.80;;;24.20;67.60;;;;;;5050052;28;20220;-74
2021/07/06 07:32:10;;;;;;;2.80;2.17;;;24.10;68.00;;;;;;5054687;28;20187;-74
2021/07/06 07:34:36;;;;;;;1.83;1.60;;;24.10;68.00;;;;;;5053558;28;20765;-74
2021/07/06 07:37:03;;;;;;;5.97;1.90;;;24.20;68.60;;;;;;5056319;28;20418;-77
2021/07/06 07:39:29;;;;;;;1.80;1.47;;;24.40;67.30;;;;;;5060021;28;20445;-75
2021/07/06 07:41:54;;;;;;;3.17;1.90;;;24.60;66.30;;;;;;5075533;28;20436;-75
2021/07/06 07:44:20;;;;;;;3.87;2.27;;;24.70;65.70;;;;;;5067643;28;20245;-74
2021/07/06 07:46:46;;;;;;;3.83;1.83;;;24.80;65.80;;;;;;5059538;28;20686;-73
2021/07/06 07:49:11;;;;;;;1.90;1.50;;;24.90;65.80;;;;;;5068516;28;20213;-73
2021/07/06 07:51:37;;;;;;;2.20;1.50;;;25.00;66.40;;;;;;5072979;28;20197;-74
2021/07/06 07:54:03;;;;;;;2.30;1.57;;;25.20;64.70;;;;;;5068259;28;20181;-75
2021/07/06 07:56:29;;;;;;;2.40;1.90;;;25.20;63.80;;;;;;5061770;28;20194;-74
2021/07/06 07:58:55;;;;;;;2.93;1.93;;;25.20;64.70;;;;;;5052833;28;20460;-73
2021/07/06 08:01:21;;;;;;;2.00;1.40;;;25.30;63.90;;;;;;5066457;28;20432;-75
2021/07/06 08:03:47;;;;;;;1.90;1.30;;;25.40;63.90;;;;;;5048224;28;20188;-75
2021/07/06 08:06:12;;;;;;;3.53;1.73;;;25.40;63.90;;;;;;5052695;28;20271;-76
2021/07/06 08:08:38;;;;;;;1.60;1.40;;;25.40;64.70;;;;;;5051928;28;20674;-75
2021/07/06 08:11:04;;;;;;;3.83;1.70;;;25.50;64.20;;;;;;5047477;28;20228;-74
2021/07/06 08:13:33;;;;;;;2.40;1.73;;;25.60;64.70;;;;;;5052599;28;20236;-75
2021/07/06 08:16:00;;;;;;;3.10;1.70;;;25.60;64.50;;;;;;5051096;28;20251;-75
2021/07/06 08:18:26;;;;;;;3.77;2.13;;;25.60;65.70;;;;;;5050407;28;20549;-75
2021/07/06 08:20:53;;;;;;;2.33;1.57;;;25.60;65.70;;;;;;5045374;28;20556;-74
2021/07/06 08:23:19;;;;;;;3.57;1.90;;;25.60;65.40;;;;;;5052762;28;20251;-76
2021/07/06 08:25:45;;;;;;;2.33;1.63;;;25.60;65.10;;;;;;5055238;28;20420;-75
2021/07/06 08:28:10;;;;;;;2.30;1.80;;;25.60;65.30;;;;;;5054363;28;21039;-74
2021/07/06 08:30:38;;;;;;;3.40;1.93;;;25.80;63.90;;;;;;5053778;28;20429;-74
2021/07/06 08:33:04;;;;;;;2.40;1.90;;;25.80;63.90;;;;;;5049280;28;20249;-73
2021/07/06 08:35:30;;;;;;;3.97;1.90;;;25.80;64.70;;;;;;5053568;28;20783;-76
2021/07/06 08:37:55;;;;;;;3.43;2.03;;;25.90;63.50;;;;;;5052843;28;20213;-76
2021/07/06 08:40:21;;;;;;;1.60;1.60;;;26.00;62.30;;;;;;5051227;28;20848;-75
2021/07/06 08:42:48;;;;;;;2.20;1.60;;;26.10;62.00;;;;;;5049472;28;20200;-75
2021/07/06 08:45:15;;;;;;;2.80;2.07;;;26.00;62.00;;;;;;5048875;28;20201;-75
2021/07/06 08:47:46;;;;;;;3.20;2.03;;;26.00;61.90;;;;;;5058932;28;20482;-76
2021/07/06 08:50:12;;;;;;;2.70;1.50;;;26.00;61.30;;;;;;5048373;28;20804;-74
2021/07/06 08:52:44;;;;;;;2.83;1.90;;;26.10;62.20;;;;;;5051490;28;20435;-74
2021/07/06 08:55:11;;;;;;;2.23;1.70;;;26.20;62.30;;;;;;5051371;28;20616;-76
2021/07/06 08:57:38;;;;;;;3.37;1.80;;;26.20;62.30;;;;;;5049061;28;20482;-75
2021/07/06 09:00:05;;;;;;;8.07;2.00;;;26.20;61.60;;;;;;5051743;28;20428;-76
2021/07/06 09:02:31;;;;;;;4.50;1.90;;;26.40;61.70;;;;;;5046541;28;20441;-76
2021/07/06 09:04:57;;;;;;;4.10;2.30;;;26.50;61.00;;;;;;5051045;28;20442;-74
2021/07/06 09:07:37;;;;;;;2.60;1.77;;;26.60;60.70;;;;;;5049047;28;20217;-76
2021/07/06 09:10:15;;;;;;;4.37;2.27;;;26.70;60.30;;;;;;5051802;28;20254;-75
2021/07/06 09:12:41;;;;;;;3.30;1.70;;;26.70;60.90;;;;;;5045665;28;20422;-76
2021/07/06 09:15:26;;;;;;;5.90;2.03;;;26.60;60.70;;;;;;5063240;28;20457;-75
2021/07/06 09:18:17;;;;;;;1.70;1.53;;;26.50;60.70;;;;;;5054878;28;20469;-76
2021/07/06 09:21:07;;;;;;;4.60;2.20;;;26.30;61.00;;;;;;5048904;28;20537;-77
2021/07/06 09:23:44;;;;;;;2.73;1.93;;;26.30;61.90;;;;;;5051419;28;20462;-76
2021/07/06 09:26:15;;;;;;;4.00;2.20;;;26.40;62.20;;;;;;5051252;28;20495;-76
2021/07/06 09:28:46;;;;;;;3.13;2.20;;;26.40;62.20;;;;;;5048687;28;20458;-75
2021/07/06 09:31:29;;;;;;;4.90;3.00;;;26.20;63.70;;;;;;5052040;28;20554;-74
2021/07/06 09:34:05;;;;;;;9.00;3.43;;;25.00;70.10;;;;;;5050530;28;21009;-74
2021/07/06 09:36:38;;;;;;;3.43;2.60;;;24.50;72.40;;;;;;5049896;28;20512;-74
2021/07/06 09:39:24;;;;;;;6.17;2.30;;;23.90;73.90;;;;;;5041828;28;20450;-77
2021/07/06 09:41:59;;;;;;;3.60;2.17;;;23.20;75.40;;;;;;5050604;28;20430;-74
2021/07/06 09:44:33;;;;;;;7.30;2.23;;;23.00;76.20;;;;;;5051305;28;20772;-76
2021/07/06 09:47:03;;;;;;;2.07;1.90;;;22.60;77.10;;;;;;5038651;28;20973;-76
2021/07/06 09:49:35;;;;;;;2.60;1.80;;;22.40;77.70;;;;;;5051063;28;20475;-76
2021/07/06 09:52:20;;;;;;;3.10;1.57;;;22.30;77.30;;;;;;5043349;28;20433;-75
2021/07/06 09:54:48;;;;;;;3.67;1.20;;;22.20;77.10;;;;;;5065789;28;20491;-76
2021/07/06 09:57:37;;;;;;;1.20;1.00;;;22.00;77.80;;;;;;5051721;28;20463;-76
2021/07/06 10:00:08;;;;;;;2.50;1.50;;;22.10;77.80;;;;;;5058612;28;20428;-75
2021/07/06 10:02:35;;;;;;;1.37;1.10;;;22.10;77.10;;;;;;5050099;28;20924;-77
2021/07/06 10:05:04;;;;;;;2.60;0.97;;;22.30;77.70;;;;;;5050323;28;20435;-75
2021/07/06 10:07:31;;;;;;;1.63;1.20;;;22.60;77.00;;;;;;5049647;28;20525;-73
2021/07/06 10:09:57;;;;;;;2.07;1.30;;;22.70;76.50;;;;;;5050773;28;20438;-75
2021/07/06 10:12:24;;;;;;;2.97;1.30;;;22.60;76.80;;;;;;5049323;28;20798;-73
2021/07/06 10:14:51;;;;;;;4.87;1.60;;;22.70;77.10;;;;;;5050672;28;20429;-74
2021/07/06 10:17:17;;;;;;;3.70;1.60;;;22.90;76.70;;;;;;5045457;28;20465;-75
2021/07/06 10:19:45;;;;;;;4.13;1.50;;;23.20;75.50;;;;;;5045609;28;20469;-74
2021/07/06 10:22:12;;;;;;;1.67;1.17;;;23.40;74.80;;;;;;5048446;28;20595;-74
2021/07/06 10:24:46;;;;;;;3.40;1.60;;;23.20;74.80;;;;;;5050083;28;20454;-75
2021/07/06 10:27:22;;;;;;;1.60;1.10;;;23.20;74.60;;;;;;5047464;28;21086;-75
2021/07/06 10:30:04;;;;;;;2.50;1.40;;;23.10;74.50;;;;;;5048586;28;20437;-75
2021/07/06 10:32:46;;;;;;;2.37;1.17;;;23.30;74.60;;;;;;5050055;28;20415;-76
2021/07/06 10:35:14;;;;;;;5.13;1.47;;;23.00;75.80;;;;;;5035513;28;20450;-76
2021/07/06 10:37:40;;;;;;;1.60;1.20;;;23.20;75.90;;;;;;5047686;28;20993;-73
2021/07/06 10:40:12;;;;;;;2.37;1.30;;;23.40;74.60;;;;;;5046700;28;20941;-75
2021/07/06 10:42:40;;;;;;;2.23;1.43;;;23.60;74.00;;;;;;5042954;28;20426;-75
2021/07/06 10:45:32;;;;;;;4.03;1.43;;;23.60;74.20;;;;;;5049932;28;20951;-75
2021/07/06 10:47:58;;;;;;;7.97;1.73;;;23.70;74.30;;;;;;5048340;28;20471;-73
2021/07/06 10:50:43;;;;;;;3.80;1.63;;;24.10;74.20;;;;;;5051231;28;20878;-74
2021/07/06 10:53:14;;;;;;;1.60;0.97;;;24.30;71.80;;;;;;5051052;28;20439;-74
2021/07/06 10:55:41;;;;;;;4.13;1.23;;;23.70;73.50;;;;;;5053060;28;20422;-74
2021/07/06 10:58:07;;;;;;;5.77;1.80;;;23.50;75.20;;;;;;5065041;28;20449;-75
2021/07/06 11:00:44;;;;;;;3.03;1.57;;;23.50;75.80;;;;;;5049886;28;20812;-74
2021/07/06 11:03:18;;;;;;;4.03;1.20;;;23.60;75.80;;;;;;5049643;28;20524;-75
2021/07/06 11:05:45;;;;;;;1.43;1.20;;;23.70;75.10;;;;;;5053991;28;20424;-73
2021/07/06 11:08:49;;;;;;;1.70;1.17;;;23.90;74.30;;;;;;5056738;28;20440;-77
2021/07/06 11:11:34;;;;;;;1.50;1.13;;;23.90;74.50;;;;;;5028487;28;20433;-76
2021/07/06 11:14:24;;;;;;;2.03;1.40;;;23.80;73.90;;;;;;5027239;28;20413;-74
2021/07/06 11:16:59;;;;;;;4.43;1.27;;;23.90;74.20;;;;;;5035078;28;20804;-73
2021/07/06 11:19:36;;;;;;;2.20;1.30;;;24.00;73.30;;;;;;5035488;28;21006;-74
2021/07/06 11:22:08;;;;;;;3.07;1.53;;;24.20;72.70;;;;;;5042126;28;20484;-75
2021/07/06 11:24:41;;;;;;;2.37;1.47;;;24.50;72.40;;;;;;5042567;28;20458;-74
2021/07/06 11:27:12;;;;;;;2.33;1.40;;;24.80;69.50;;;;;;5022073;28;20474;-73
2021/07/06 11:29:39;;;;;;;1.10;0.90;;;25.10;68.30;;;;;;5030254;28;20756;-75
2021/07/06 11:32:13;;;;;;;1.30;1.10;;;25.30;67.00;;;;;;5047663;28;20420;-73
2021/07/06 11:34:40;;;;;;;1.33;1.00;;;25.30;64.50;;;;;;5040802;28;20450;-74
2021/07/06 11:37:09;;;;;;;2.27;1.17;;;24.70;66.60;;;;;;5038591;28;20422;-75
2021/07/06 11:39:35;;;;;;;1.70;0.90;;;24.30;67.90;;;;;;5040576;28;20477;-75
2021/07/06 11:42:02;;;;;;;1.40;0.90;;;24.40;68.00;;;;;;5049670;28;20802;-74
2021/07/06 11:44:29;;;;;;;1.80;1.23;;;24.40;68.20;;;;;;5060871;28;20494;-74
2021/07/06 11:47:16;;;;;;;1.77;1.10;;;24.40;68.30;;;;;;5063368;28;20560;-74
2021/07/06 11:49:42;;;;;;;3.27;1.50;;;24.30;68.90;;;;;;5059781;28;20939;-74
2021/07/06 11:52:10;;;;;;;2.20;1.40;;;24.10;69.80;;;;;;5059402;28;20413;-75
2021/07/06 11:54:37;;;;;;;2.30;1.60;;;23.90;69.90;;;;;;5051294;28;20184;-74
2021/07/06 11:57:04;;;;;;;1.93;1.00;;;23.80;70.40;;;;;;5058425;28;20420;-73
2021/07/06 11:59:30;;;;;;;4.30;1.27;;;23.70;71.00;;;;;;5048176;28;20441;-75
2021/07/06 12:02:07;;;;;;;1.33;1.20;;;23.50;72.40;;;;;;5057783;28;20484;-75
2021/07/06 12:04:33;;;;;;;1.53;1.07;;;23.30;74.80;;;;;;5055666;28;20177;-73
2021/07/06 12:07:08;;;;;;;1.40;1.00;;;23.10;75.40;;;;;;5059506;28;20462;-75
2021/07/06 12:09:35;;;;;;;1.20;0.90;;;23.00;75.40;;;;;;5059255;28;20452;-74
2021/07/06 12:12:21;;;;;;;1.10;1.10;;;23.00;75.90;;;;;;5059170;28;20423;-74
2021/07/06 12:14:50;;;;;;;1.87;1.03;;;23.20;75.70;;;;;;5058441;28;20437;-74
2021/07/06 12:17:47;;;;;;;2.40;1.40;;;23.60;73.70;;;;;;5050789;28;20840;-74
2021/07/06 12:20:17;;;;;;;3.83;1.10;;;23.90;72.00;;;;;;5052994;28;20942;-76
2021/07/06 12:22:42;;;;;;;0.90;0.70;;;24.00;71.80;;;;;;5054718;28;20959;-75
2021/07/06 12:25:09;;;;;;;1.23;0.90;;;24.00;71.80;;;;;;5053732;28;20513;-75
2021/07/06 12:27:35;;;;;;;1.00;0.80;;;24.00;71.80;;;;;;5052464;28;20527;-74
2021/07/06 12:30:02;;;;;;;2.60;1.20;;;24.10;71.40;;;;;;5051502;28;20506;-76
2021/07/06 12:32:28;;;;;;;1.83;1.07;;;24.00;71.40;;;;;;5052002;28;20713;-74
2021/07/06 12:34:59;;;;;;;1.67;1.00;;;24.10;71.40;;;;;;5052059;28;20939;-74
2021/07/06 12:37:26;;;;;;;1.87;1.20;;;24.10;72.00;;;;;;5052395;28;20478;-73
2021/07/06 12:40:01;;;;;;;2.33;0.97;;;24.40;71.40;;;;;;5052747;28;20445;-73
2021/07/06 12:42:28;;;;;;;2.60;1.17;;;24.50;71.00;;;;;;5051937;28;20427;-74
2021/07/06 12:44:56;;;;;;;2.70;0.97;;;24.50;70.50;;;;;;5052669;28;20437;-73
2021/07/06 12:47:40;;;;;;;1.70;1.00;;;24.50;70.50;;;;;;5051859;28;20469;-74
2021/07/06 12:50:15;;;;;;;1.00;0.90;;;24.70;70.80;;;;;;5045988;28;20422;-76